createdAt,value
2022-09-14T00:05:00.161Z,0
2022-09-14T00:09:57.370Z,0
2022-09-14T00:14:57.025Z,0
2022-09-14T00:19:56.702Z,0
2022-09-14T00:24:56.159Z,0
2022-09-14T00:29:54.410Z,0
2022-09-14T00:34:54.048Z,0
2022-09-14T00:39:54.094Z,0
2022-09-14T00:44:52.968Z,0
2022-09-14T00:49:51.917Z,0
2022-09-14T00:54:51.346Z,0
2022-09-14T00:58:55.873Z,0
2022-09-14T01:03:54.953Z,0
2022-09-14T01:08:55.219Z,0
2022-09-14T01:13:54.409Z,0
2022-09-14T01:18:54.500Z,0
2022-09-14T01:23:51.546Z,0
2022-09-14T01:28:51.097Z,0
2022-09-14T01:33:51.123Z,0
2022-09-14T01:38:50.122Z,0
2022-09-14T01:43:48.037Z,0
2022-09-14T01:48:47.644Z,0
2022-09-14T01:53:47.062Z,0
2022-09-14T01:58:35.479Z,0
2022-09-14T02:03:35.022Z,0
2022-09-14T02:08:34.178Z,0
2022-09-14T02:13:34.073Z,0
2022-09-14T02:18:34.503Z,0
2022-09-14T02:23:33.984Z,0
2022-09-14T02:28:31.733Z,0
2022-09-14T02:33:31.563Z,0
2022-09-14T02:38:31.152Z,0
2022-09-14T02:43:30.276Z,0
2022-09-14T02:48:28.777Z,0
2022-09-14T02:53:28.274Z,0
2022-09-14T02:58:25.271Z,0
2022-09-14T03:03:24.615Z,0
2022-09-14T03:08:25.098Z,0
2022-09-14T03:13:24.157Z,0
2022-09-14T03:18:25.056Z,0
2022-09-14T03:23:23.265Z,0
2022-09-14T03:28:22.679Z,0
2022-09-14T03:33:23.217Z,0
2022-09-14T03:38:20.857Z,0
2022-09-14T03:43:21.585Z,0
2022-09-14T03:48:21.000Z,0
2022-09-14T03:53:08.900Z,0
2022-09-14T03:57:54.765Z,0
2022-09-14T04:02:55.111Z,0
2022-09-14T04:07:56.140Z,0
2022-09-14T04:12:53.244Z,0
2022-09-14T04:17:52.768Z,0
2022-09-14T04:22:53.051Z,0
2022-09-14T04:28:22.320Z,0
2022-09-14T04:32:51.249Z,0
2022-09-14T04:37:50.975Z,0
2022-09-14T04:42:48.501Z,0
2022-09-14T04:47:48.157Z,0
2022-09-14T04:52:47.929Z,0
2022-09-14T04:57:47.253Z,0
2022-09-14T04:59:08.524Z,0
2022-09-14T05:04:07.985Z,0
2022-09-14T05:09:07.824Z,0
2022-09-14T05:14:07.913Z,0
2022-09-14T05:19:08.220Z,0
2022-09-14T05:24:05.425Z,0
2022-09-14T05:29:05.152Z,0
2022-09-14T05:34:05.021Z,0
2022-09-14T05:39:04.636Z,0.01
2022-09-14T05:44:03.389Z,0
2022-09-14T05:49:02.951Z,0.01
2022-09-14T05:54:03.377Z,0.01
2022-09-14T05:59:04.121Z,0.02
2022-09-14T06:04:01.548Z,0.03
2022-09-14T06:09:00.966Z,0.02
2022-09-14T06:14:01.867Z,0.02
2022-09-14T06:18:59.165Z,0.03
2022-09-14T06:23:58.607Z,0.03
2022-09-14T06:28:58.752Z,0.03
2022-09-14T06:33:57.759Z,0.04
2022-09-14T06:38:56.403Z,0.04
2022-09-14T06:43:55.702Z,0.05
2022-09-14T06:48:55.926Z,0.05
2022-09-14T06:53:54.835Z,0.05
2022-09-14T06:58:52.567Z,0.05
2022-09-14T07:03:51.791Z,0.06
2022-09-14T07:08:52.361Z,0.07
2022-09-14T07:13:51.168Z,0.09
2022-09-14T07:18:49.608Z,0.1
2022-09-14T07:23:48.722Z,0.11
2022-09-14T07:28:48.960Z,0.13
2022-09-14T07:33:48.018Z,0.16
2022-09-14T07:38:55.699Z,0.16
2022-09-14T07:43:46.814Z,0.19
2022-09-14T07:48:46.866Z,0.19
2022-09-14T07:54:27.946Z,0.15
2022-09-14T07:58:46.600Z,0.19
2022-09-14T08:03:47.123Z,0.18
2022-09-14T08:08:47.569Z,0.22
2022-09-14T08:13:44.518Z,0.22
2022-09-14T08:18:44.691Z,0.27
2022-09-14T08:23:43.957Z,0.35
2022-09-14T08:28:44.169Z,0.37
2022-09-14T08:33:42.397Z,0.36
2022-09-14T08:38:42.392Z,0.37
2022-09-14T08:43:42.171Z,0.37
2022-09-14T08:48:43.222Z,0.35
2022-09-14T08:53:39.846Z,0.38
2022-09-14T08:58:50.528Z,0.38
2022-09-14T09:00:01.290Z,0.27
2022-09-14T09:05:01.047Z,0.18
2022-09-14T09:09:58.812Z,0.19
2022-09-14T09:14:58.007Z,0.2
2022-09-14T09:19:57.579Z,0.2
2022-09-14T09:24:57.212Z,0.25
2022-09-14T09:29:55.532Z,0.53
2022-09-14T09:34:56.519Z,0.54
2022-09-14T09:39:57.585Z,0.5
2022-09-14T09:45:05.570Z,0.52
2022-09-14T09:49:56.156Z,0.42
2022-09-14T09:54:56.162Z,0.54
2022-09-14T09:59:16.426Z,0.52
2022-09-14T10:04:17.148Z,0.55
2022-09-14T10:09:24.573Z,0.37
2022-09-14T10:14:23.749Z,0.47
2022-09-14T10:19:25.219Z,0.53
2022-09-14T10:24:22.073Z,0.56
2022-09-14T10:29:21.747Z,0.48
2022-09-14T10:34:22.547Z,0.56
2022-09-14T10:39:08.766Z,0.51
2022-09-14T10:44:09.005Z,0.41
2022-09-14T10:49:08.501Z,0.6
2022-09-14T10:54:07.975Z,0.51
2022-09-14T10:59:00.459Z,0.72
2022-09-14T11:04:00.132Z,0.72
2022-09-14T11:08:59.826Z,0.5
2022-09-14T11:13:59.342Z,0.58
2022-09-14T11:18:57.985Z,0.66
2022-09-14T11:23:58.682Z,0.25
2022-09-14T11:28:58.445Z,0.35
2022-09-14T11:33:57.346Z,0.19
2022-09-14T11:38:57.137Z,0.2
2022-09-14T11:43:57.090Z,0.18
2022-09-14T11:48:58.098Z,0.15
2022-09-14T11:53:54.173Z,0.1
2022-09-14T11:58:53.918Z,0.07
2022-09-14T12:03:55.312Z,0.03
2022-09-14T12:08:53.185Z,0.02
2022-09-14T12:13:52.545Z,0.02
2022-09-14T12:18:51.295Z,0.01
2022-09-14T12:23:52.246Z,0
2022-09-14T12:28:52.032Z,0
2022-09-14T12:33:52.073Z,0
2022-09-14T12:38:48.587Z,0
2022-09-14T12:43:48.306Z,0
2022-09-14T12:48:47.602Z,0.01
2022-09-14T12:53:46.650Z,0.01
2022-09-14T12:58:44.735Z,0.01
2022-09-14T13:03:43.937Z,0
2022-09-14T13:08:43.278Z,0.01
2022-09-14T13:13:44.933Z,0.02
2022-09-14T13:18:41.997Z,0.02
2022-09-14T13:23:42.144Z,0.03
2022-09-14T13:28:41.704Z,0.05
2022-09-14T13:33:40.557Z,0.06
2022-09-14T13:38:40.333Z,0.05
2022-09-14T13:43:39.801Z,0.08
2022-09-14T13:48:38.650Z,0.08
2022-09-14T13:53:39.217Z,0.07
2022-09-14T13:58:24.240Z,0.06
2022-09-14T14:03:24.463Z,0.07
2022-09-14T14:08:23.935Z,0.07
2022-09-14T14:13:24.010Z,0.08
2022-09-14T14:18:21.910Z,0.08
2022-09-14T14:23:21.687Z,0.06
2022-09-14T14:28:21.418Z,0.07
2022-09-14T14:33:20.672Z,0.08
2022-09-14T14:38:19.550Z,0.07
2022-09-14T14:43:18.901Z,0.07
2022-09-14T14:48:19.010Z,0.07
2022-09-14T14:53:18.698Z,0.08
2022-09-14T14:58:16.823Z,0.07
2022-09-14T15:00:03.865Z,0.07
2022-09-14T15:05:02.474Z,0.04
2022-09-14T15:10:03.462Z,0.04
2022-09-14T15:15:00.012Z,0.06
2022-09-14T15:20:00.051Z,0.08
2022-09-14T15:24:59.808Z,0.11
2022-09-14T15:29:59.829Z,0.12
2022-09-14T15:34:57.682Z,0.12
2022-09-14T15:39:57.786Z,0.16
2022-09-14T15:44:57.724Z,0.14
2022-09-14T15:49:57.074Z,0.13
2022-09-14T15:54:56.572Z,0.1
2022-09-14T15:59:16.282Z,0.1
2022-09-14T16:04:16.142Z,0.07
2022-09-14T16:09:25.977Z,0.07
2022-09-14T16:14:25.494Z,0.05
2022-09-14T16:19:25.327Z,0.05
2022-09-14T16:24:25.029Z,0.04
2022-09-14T16:29:23.732Z,0.03
2022-09-14T16:34:23.689Z,0.03
2022-09-14T16:39:24.713Z,0.03
2022-09-14T16:44:22.402Z,0.02
2022-09-14T16:49:30.037Z,0.02
2022-09-14T16:54:22.791Z,0.02
2022-09-14T16:59:05.123Z,0.01
2022-09-14T17:04:04.337Z,0.01
2022-09-14T17:09:03.382Z,0.01
2022-09-14T17:14:03.737Z,0
2022-09-14T17:19:00.512Z,0
2022-09-14T17:24:00.525Z,0
2022-09-14T17:29:00.124Z,0
2022-09-14T17:33:59.801Z,0
2022-09-14T17:38:57.943Z,0
2022-09-14T17:43:57.580Z,0
2022-09-14T17:48:56.674Z,0
2022-09-14T17:53:57.455Z,0
2022-09-14T17:58:54.583Z,0
2022-09-14T18:03:55.566Z,0
2022-09-14T18:08:53.361Z,0
2022-09-14T18:13:53.267Z,0
2022-09-14T18:18:50.580Z,0
2022-09-14T18:23:51.035Z,0
2022-09-14T18:28:51.687Z,0
2022-09-14T18:33:49.081Z,0
2022-09-14T18:38:48.645Z,0
2022-09-14T18:43:48.582Z,0
2022-09-14T18:48:47.733Z,0
2022-09-14T18:53:47.310Z,0
2022-09-14T18:58:46.527Z,0
2022-09-14T19:03:46.742Z,0
2022-09-14T19:08:46.400Z,0
2022-09-14T19:13:43.927Z,0
2022-09-14T19:18:44.013Z,0
2022-09-14T19:23:43.374Z,0
2022-09-14T19:28:43.532Z,0
2022-09-14T19:33:47.435Z,0
2022-09-14T19:38:41.446Z,0
2022-09-14T19:43:41.052Z,0
2022-09-14T19:48:40.013Z,0
2022-09-14T19:53:38.189Z,0
2022-09-14T19:58:38.268Z,0
2022-09-14T20:03:38.101Z,0
2022-09-14T20:08:38.224Z,0
2022-09-14T20:13:35.788Z,0
2022-09-14T20:18:35.381Z,0
2022-09-14T20:23:35.122Z,0
2022-09-14T20:28:34.459Z,0
2022-09-14T20:33:33.056Z,0
2022-09-14T20:38:32.832Z,0
2022-09-14T20:43:32.445Z,0
2022-09-14T20:48:33.816Z,0
2022-09-14T20:53:30.830Z,0
2022-09-14T20:58:30.833Z,0
2022-09-14T20:59:52.151Z,0
2022-09-14T21:04:51.306Z,0
2022-09-14T21:09:49.138Z,0
2022-09-14T21:14:48.962Z,0
2022-09-14T21:19:48.663Z,0
2022-09-14T21:24:47.993Z,0
2022-09-14T21:29:46.842Z,0
2022-09-14T21:34:46.394Z,0
2022-09-14T21:39:46.571Z,0
2022-09-14T21:44:45.649Z,0
2022-09-14T21:49:44.771Z,0
2022-09-14T21:54:44.905Z,0
2022-09-14T21:58:53.724Z,0
2022-09-14T22:03:54.194Z,0
2022-09-14T22:08:51.236Z,0
2022-09-14T22:13:51.895Z,0
2022-09-14T22:18:51.331Z,0
2022-09-14T22:23:49.847Z,0
2022-09-14T22:28:49.249Z,0
2022-09-14T22:33:49.285Z,0
2022-09-14T22:38:49.456Z,0
2022-09-14T22:43:50.211Z,0
2022-09-14T22:48:47.642Z,0
2022-09-14T22:53:47.196Z,0
2022-09-14T22:58:47.868Z,0
2022-09-14T23:03:46.923Z,0
2022-09-14T23:08:44.174Z,0
2022-09-14T23:13:44.043Z,0
2022-09-14T23:18:44.099Z,0
2022-09-14T23:23:45.399Z,0
2022-09-14T23:28:43.356Z,0
2022-09-14T23:33:43.169Z,0
2022-09-14T23:38:42.103Z,0
2022-09-14T23:43:41.306Z,0
2022-09-14T23:48:40.491Z,0
2022-09-14T23:53:40.584Z,0
2022-09-14T23:58:40.166Z,0
